KTVL/TVL METAR and TAF weather

Enter ICAO airport designator
Station Type Date Time Source
KTVL METAR 2019/05/21 20:16 UTC NOAA

KTVL 212016Z AUTO 17012KT 10SM FEW027 OVC035 04/M02 A2980 RMK AO2 T00391017


Station Type Date Time Source
KTVL Decoded METAR 2019/05/21 20:16 UTC NOAA

SOUTH LAKE TAHOE AIRPORT, CA, United States (KTVL) 38-53N 119-59W 1925M
May 21, 2019 - 04:16 PM EDT / 2019.05.21 2016 UTC
Wind: from the S (170 degrees) at 14 MPH (12 KT):0
Visibility: 10 mile(s):0
Sky conditions: overcast
Temperature: 39.0 F (3.9 C)
Dew Point: 28.9 F (-1.7 C)
Relative Humidity: 66%
Pressure (altimeter): 29.8 in. Hg (1009 hPa)
ob: KTVL 212016Z AUTO 17012KT 10SM FEW027 OVC035 04/M02 A2980 RMK AO2 T00391017
cycle: 20

Station Type Date Time Source
KTVL TAF 2019/05/21 18:42 UTC NOAA

TAF KTVL 211740Z 2118/2218 19012G20KT P6SM -SHSN SCT025 OVC040
TEMPO 2118/2122 2SM -SN BKN012 OVC020
FM220000 19006KT 5SM -SHSN BKN025 OVC045
TEMPO 2201/2205 1SM -SN OVC010
FM220700 VRB04KT P6SM VCSH SCT025 OVC045

Example: see airport list